Time;durP1;ratioP1;P1;durP2;ratioP2;P2;SDS_P1;SDS_P2;PMS_P1;PMS_P2;Temp;Humidity;BMP_temperature;BMP_pressure;BME280_temperature;BME280_humidity;BME280_pressure;Samples;Min_cycle;Max_cycle;Signal;HPM_P1;HPM_P2
2021/06/24 00:01:13;;;;;;;44.90;39.25;;;;;;;19.99;85.29;96289.81;3581165;40;20056;-62
2021/06/24 00:03:41;;;;;;;42.20;37.60;;;;;;;20.01;84.40;96299.13;3567898;40;20407;-62
2021/06/24 00:06:09;;;;;;;45.63;37.83;;;;;;;19.99;85.17;96314.69;3581849;40;20055;-62
2021/06/24 00:08:37;;;;;;;46.28;37.78;;;;;;;19.93;84.36;96308.69;3576125;40;20395;-62
2021/06/24 00:11:08;;;;;;;41.28;35.45;;;;;;;19.85;85.18;96312.09;3583193;40;20060;-62
2021/06/24 00:13:39;;;;;;;42.75;38.28;;;;;;;19.81;85.68;96298.53;3577194;40;20041;-62
2021/06/24 00:16:07;;;;;;;42.10;36.88;;;;;;;19.84;85.76;96294.44;3581989;40;20062;-62
2021/06/24 00:18:36;;;;;;;45.80;37.00;;;;;;;19.84;85.49;96299.78;3581281;40;20047;-62
2021/06/24 00:21:05;;;;;;;42.17;36.58;;;;;;;19.80;85.40;96293.47;3583683;40;20562;-62
2021/06/24 00:23:34;;;;;;;43.53;37.13;;;;;;;19.80;85.32;96298.81;3581835;40;20049;-62
2021/06/24 00:26:02;;;;;;;41.03;36.08;;;;;;;19.73;85.47;96293.13;3578849;40;20052;-61
2021/06/24 00:28:30;;;;;;;40.63;35.38;;;;;;;19.74;85.58;96294.69;3571530;40;20062;-62
2021/06/24 00:30:59;;;;;;;42.63;36.40;;;;;;;19.73;85.87;96283.19;3573366;40;20059;-62
2021/06/24 00:33:27;;;;;;;38.20;33.67;;;;;;;19.74;85.56;96284.00;3581309;40;20044;-62
2021/06/24 00:35:55;;;;;;;36.95;32.90;;;;;;;19.74;85.81;96279.41;3581492;40;20049;-62
2021/06/24 00:38:23;;;;;;;38.65;33.85;;;;;;;19.74;85.24;96287.44;3582915;40;20055;-62
2021/06/24 00:40:51;;;;;;;36.25;32.38;;;;;;;19.73;84.96;96282.41;3572841;40;20057;-62
2021/06/24 00:43:20;;;;;;;36.40;31.38;;;;;;;19.69;84.16;96284.09;3583155;40;20393;-62
2021/06/24 00:45:49;;;;;;;34.15;30.60;;;;;;;19.65;85.00;96275.91;3571204;40;20394;-62
2021/06/24 00:48:17;;;;;;;34.15;28.85;;;;;;;19.66;84.18;96275.59;3581749;40;20048;-62
2021/06/24 00:50:47;;;;;;;32.63;27.90;;;;;;;19.59;83.66;96264.53;3574982;40;20049;-62
2021/06/24 00:53:15;;;;;;;30.25;26.33;;;;;;;19.60;84.34;96271.47;3572924;40;20691;-62
2021/06/24 00:55:45;;;;;;;29.35;26.08;;;;;;;19.61;83.59;96272.25;3581566;40;20337;-62
2021/06/24 00:58:17;;;;;;;32.30;24.20;;;;;;;19.60;83.27;96268.00;3582852;40;20052;-62
2021/06/24 01:00:47;;;;;;;30.33;25.45;;;;;;;19.58;82.88;96260.28;3571684;40;20055;-63
2021/06/24 01:03:16;;;;;;;24.55;21.95;;;;;;;19.55;83.22;96250.19;3570832;40;20049;-62
2021/06/24 01:05:46;;;;;;;30.00;23.45;;;;;;;19.50;82.36;96247.66;3581644;40;20062;-62
2021/06/24 01:08:16;;;;;;;29.90;24.65;;;;;;;19.42;82.76;96245.69;3571766;40;20056;-62
2021/06/24 01:10:47;;;;;;;40.78;24.88;;;;;;;19.40;82.98;96258.56;3564054;40;20051;-62
2021/06/24 01:13:16;;;;;;;29.83;23.77;;;;;;;19.39;83.22;96263.13;3581100;40;20052;-60
2021/06/24 01:15:44;;;;;;;28.77;23.63;;;;;;;19.38;83.13;96263.44;3580500;40;20055;-63
2021/06/24 01:18:12;;;;;;;34.75;25.38;;;;;;;19.36;83.41;96263.75;3572713;40;20058;-62
2021/06/24 01:20:40;;;;;;;25.33;21.70;;;;;;;19.11;83.38;96219.69;3580774;40;20057;-62
2021/06/24 01:23:12;;;;;;;30.80;27.58;;;;;;;19.37;83.35;96246.59;3571913;40;20070;-62
2021/06/24 01:25:40;;;;;;;28.10;23.00;;;;;;;19.38;83.13;96250.84;3571883;40;20059;-62
2021/06/24 01:28:10;;;;;;;32.85;24.95;;;;;;;19.38;83.79;96248.19;3580716;40;20368;-62
2021/06/24 01:30:42;;;;;;;28.75;25.55;;;;;;;19.38;84.12;96258.88;3580267;40;20594;-62
2021/06/24 01:33:13;;;;;;;27.48;24.13;;;;;;;19.37;83.20;96249.28;3583346;40;20420;-63
2021/06/24 01:35:41;;;;;;;27.92;23.38;;;;;;;19.38;83.91;96250.06;3580785;40;20413;-62
2021/06/24 01:38:11;;;;;;;29.50;23.23;;;;;;;19.35;83.23;96264.84;3574899;40;20062;-63
2021/06/24 01:40:54;;;;;;;26.38;22.98;;;;;;;19.33;83.74;96262.47;3575666;40;20144;-62
2021/06/24 01:43:22;;;;;;;26.98;24.08;;;;;;;19.32;84.41;96262.78;3581567;40;20048;-62
2021/06/24 01:45:53;;;;;;;33.10;25.75;;;;;;;19.31;83.82;96251.28;3581835;40;20052;-62
2021/06/24 01:48:22;;;;;;;29.88;24.02;;;;;;;19.30;84.29;96259.63;3581671;40;20062;-62
2021/06/24 01:50:52;;;;;;;38.92;24.73;;;;;;;19.31;84.19;96267.31;3583761;40;20320;-62
2021/06/24 01:53:20;;;;;;;29.23;24.25;;;;;;;19.32;83.62;96271.59;3581275;40;20059;-62
2021/06/24 01:55:49;;;;;;;31.65;25.35;;;;;;;19.29;83.63;96266.84;3580529;40;20049;-62
2021/06/24 01:58:22;;;;;;;28.55;24.77;;;;;;;19.27;84.28;96271.69;3579840;40;20291;-63
2021/06/24 02:01:19;;;;;;;26.92;21.88;;;;;;;19.28;83.03;96275.16;3543856;40;20042;-62
2021/06/24 02:03:59;;;;;;;26.23;23.20;;;;;;;19.22;83.17;96266.47;3573106;40;20304;-62
2021/06/24 02:06:27;;;;;;;27.55;23.83;;;;;;;19.22;83.64;96258.44;3563957;40;20052;-62
2021/06/24 02:09:06;;;;;;;29.52;24.95;;;;;;;19.20;83.77;96269.44;3580218;40;20193;-60
2021/06/24 02:11:55;;;;;;;28.02;24.23;;;;;;;19.17;83.81;96270.06;3582200;40;20055;-62
2021/06/24 02:14:25;;;;;;;28.30;24.10;;;;;;;19.11;83.56;96262.47;3571431;40;20857;-62
2021/06/24 02:16:53;;;;;;;27.80;24.00;;;;;;;19.07;83.27;96262.28;3570720;40;20398;-62
2021/06/24 02:19:22;;;;;;;25.30;22.60;;;;;;;19.07;83.20;96270.28;3578471;40;20060;-62
2021/06/24 02:22:12;;;;;;;27.77;22.83;;;;;;;19.06;83.24;96260.69;3581599;40;20059;-63
2021/06/24 02:24:54;;;;;;;33.25;24.80;;;;;;;19.03;84.04;96261.28;3571989;40;20046;-63
2021/06/24 02:27:24;;;;;;;30.13;23.88;;;;;;;19.00;84.11;96265.38;3562471;40;20374;-62
2021/06/24 02:30:23;;;;;;;27.65;24.50;;;;;;;19.00;83.87;96256.53;3574779;40;20044;-62
2021/06/24 02:32:56;;;;;;;28.15;24.00;;;;;;;18.96;83.60;96259.03;3574759;40;20040;-62
2021/06/24 02:35:25;;;;;;;28.65;24.92;;;;;;;18.95;84.18;96254.00;3564548;40;20076;-62
2021/06/24 02:38:02;;;;;;;26.23;22.92;;;;;;;18.94;84.14;96258.53;3579807;40;20060;-62
2021/06/24 02:40:38;;;;;;;29.55;26.55;;;;;;;18.90;83.80;96269.00;3582834;40;20449;-62
2021/06/24 02:43:07;;;;;;;28.27;24.17;;;;;;;18.84;83.73;96274.75;3576419;40;20045;-62
2021/06/24 02:45:41;;;;;;;31.55;25.20;;;;;;;18.86;83.91;96273.38;3572416;40;20055;-62
2021/06/24 02:48:15;;;;;;;28.10;25.20;;;;;;;18.90;84.28;96268.22;3580338;40;20049;-62
2021/06/24 02:50:44;;;;;;;31.45;26.52;;;;;;;18.94;84.40;96265.78;3582802;40;20052;-62
2021/06/24 02:53:12;;;;;;;30.85;25.80;;;;;;;18.94;84.04;96261.22;3572045;40;20136;-62
2021/06/24 02:55:43;;;;;;;28.55;24.02;;;;;;;18.94;84.16;96261.22;3572629;40;20044;-62
2021/06/24 02:58:14;;;;;;;33.20;25.65;;;;;;;18.98;83.70;96264.06;3579622;40;21119;-62
2021/06/24 03:00:42;;;;;;;28.83;25.73;;;;;;;19.01;83.42;96264.28;3569867;40;20045;-62
2021/06/24 03:03:27;;;;;;;30.75;24.73;;;;;;;19.04;83.62;96278.91;3568095;40;20049;-62
2021/06/24 03:06:11;;;;;;;27.63;23.65;;;;;;;19.07;83.89;96280.19;3572558;40;20059;-62
2021/06/24 03:08:38;;;;;;;33.03;26.13;;;;;;;19.11;83.23;96273.16;3581166;40;20406;-62
2021/06/24 03:11:08;;;;;;;30.33;27.05;;;;;;;19.17;83.00;96277.28;3572841;40;20049;-62
2021/06/24 03:13:47;;;;;;;28.27;24.90;;;;;;;19.24;82.68;96283.00;3571048;40;20051;-62
2021/06/24 03:16:18;;;;;;;31.73;25.17;;;;;;;19.28;82.87;96275.94;3573635;40;20053;-62
2021/06/24 03:18:49;;;;;;;25.40;22.67;;;;;;;19.37;82.26;96286.72;3581551;40;20044;-62
2021/06/24 03:21:19;;;;;;;27.23;22.17;;;;;;;19.40;81.99;96282.63;3583208;40;20070;-62
2021/06/24 03:23:49;;;;;;;26.92;21.75;;;;;;;19.46;82.11;96276.09;3583085;40;20413;-62
2021/06/24 03:26:18;;;;;;;31.50;24.20;;;;;;;19.55;81.28;96271.59;3580838;40;20048;-62
2021/06/24 03:28:49;;;;;;;28.73;23.67;;;;;;;19.59;81.47;96267.22;3581634;40;20037;-62
2021/06/24 03:31:21;;;;;;;30.35;25.80;;;;;;;19.70;81.19;96269.63;3572908;40;20058;-62
2021/06/24 03:33:51;;;;;;;32.28;24.52;;;;;;;19.82;80.28;96269.84;3573151;40;20478;-62
2021/06/24 03:36:20;;;;;;;35.58;26.85;;;;;;;19.94;79.70;96270.13;3573794;40;20082;-62
2021/06/24 03:38:48;;;;;;;30.30;25.15;;;;;;;20.13;79.22;96269.09;3572436;40;20056;-62
2021/06/24 03:41:23;;;;;;;24.38;20.35;;;;;;;20.27;78.54;96261.72;3573099;40;20324;-62
2021/06/24 03:43:56;;;;;;;31.60;23.77;;;;;;;20.45;76.85;96267.16;3583275;40;20048;-62
2021/06/24 03:46:25;;;;;;;27.92;21.90;;;;;;;20.61;76.11;96267.50;3572173;40;20488;-62
2021/06/24 03:48:53;;;;;;;24.75;21.67;;;;;;;20.79;76.25;96270.28;3581906;40;20056;-62
2021/06/24 03:51:22;;;;;;;31.02;24.20;;;;;;;21.00;74.92;96267.75;3572081;40;20075;-62
2021/06/24 03:53:58;;;;;;;24.38;21.00;;;;;;;21.16;73.75;96271.56;3574786;40;20050;-63
2021/06/24 03:56:29;;;;;;;26.63;22.33;;;;;;;21.38;73.74;96266.34;3578291;40;20462;-62
2021/06/24 03:59:04;;;;;;;27.67;22.02;;;;;;;21.67;73.14;96273.75;3576626;40;20043;-62
2021/06/24 04:01:33;;;;;;;26.65;20.27;;;;;;;21.89;72.38;96262.03;3576493;40;20299;-62
2021/06/24 04:04:02;;;;;;;25.13;20.42;;;;;;;22.15;71.79;96265.72;3576201;40;20726;-62
2021/06/24 04:06:40;;;;;;;29.08;20.80;;;;;;;22.37;69.83;96268.16;3568888;40;20394;-63
2021/06/24 04:09:09;;;;;;;23.55;20.13;;;;;;;22.63;70.04;96269.19;3569419;40;20067;-63
2021/06/24 04:11:39;;;;;;;21.40;19.15;;;;;;;22.84;68.68;96270.00;3570128;40;20242;-63
2021/06/24 04:14:27;;;;;;;28.75;22.52;;;;;;;23.10;67.91;96278.97;3569681;40;20275;-63
2021/06/24 04:16:57;;;;;;;24.85;20.35;;;;;;;23.31;67.50;96274.44;3568202;40;20673;-63
2021/06/24 04:19:25;;;;;;;31.58;23.27;;;;;;;23.20;66.91;96265.16;3577919;40;20545;-63
2021/06/24 04:21:55;;;;;;;30.65;25.65;;;;;;;22.97;67.91;96265.47;3570926;40;20329;-63
2021/06/24 04:24:30;;;;;;;30.00;23.85;;;;;;;23.38;67.05;96275.78;3571499;40;20052;-63
2021/06/24 04:26:58;;;;;;;30.65;22.58;;;;;;;23.37;66.72;96264.25;3569313;40;20063;-63
2021/06/24 04:29:26;;;;;;;27.00;23.92;;;;;;;23.03;68.00;96266.84;3562617;40;20338;-62
2021/06/24 04:31:53;;;;;;;28.20;23.40;;;;;;;22.93;68.67;96266.44;3568646;40;20045;-63
2021/06/24 04:34:22;;;;;;;25.95;21.85;;;;;;;22.84;67.84;96271.88;3575052;40;20053;-62
2021/06/24 04:37:00;;;;;;;26.52;22.27;;;;;;;23.12;67.53;96279.44;3575160;40;20063;-62
2021/06/24 04:39:33;;;;;;;23.17;19.50;;;;;;;23.60;66.35;96278.13;3568855;40;20045;-62
2021/06/24 04:42:17;;;;;;;23.30;20.08;;;;;;;24.23;63.89;96273.69;3576868;40;20061;-62
2021/06/24 04:45:08;;;;;;;37.05;20.70;;;;;;;24.45;63.12;96274.38;3578476;40;20053;-62
2021/06/24 04:48:01;;;;;;;26.55;21.80;;;;;;;23.98;64.13;96273.66;3566440;40;20056;-62
2021/06/24 04:50:29;;;;;;;25.13;20.95;;;;;;;23.76;65.38;96269.41;3568919;40;20060;-62
2021/06/24 04:52:57;;;;;;;26.55;21.02;;;;;;;24.04;64.11;96272.31;3560547;40;20051;-61
2021/06/24 04:55:38;;;;;;;24.10;20.20;;;;;;;24.17;63.37;96278.50;3568673;40;20049;-62
2021/06/24 04:58:12;;;;;;;21.30;19.10;;;;;;;24.21;63.00;96263.22;3568243;40;20056;-62
2021/06/24 05:00:59;;;;;;;25.58;18.38;;;;;;;24.79;61.14;96256.97;3565477;40;20060;-63
2021/06/24 05:03:45;;;;;;;29.58;19.83;;;;;;;25.24;60.23;96267.84;3567679;40;20487;-63
2021/06/24 05:06:15;;;;;;;24.77;17.70;;;;;;;25.75;58.21;96270.03;3569807;40;20056;-63
2021/06/24 05:08:44;;;;;;;26.48;17.65;;;;;;;26.05;57.86;96265.00;3570855;40;20083;-63
2021/06/24 05:11:12;;;;;;;24.25;19.60;;;;;;;26.31;56.98;96263.72;3566283;40;20052;-63
2021/06/24 05:13:39;;;;;;;23.70;19.98;;;;;;;26.35;56.96;96267.31;3575083;40;20063;-63
2021/06/24 05:16:07;;;;;;;25.90;20.27;;;;;;;26.51;56.40;96250.28;3569067;40;20045;-63
2021/06/24 05:18:35;;;;;;;29.05;20.95;;;;;;;26.52;57.12;96252.63;3570402;40;20049;-63
2021/06/24 05:21:04;;;;;;;29.20;21.25;;;;;;;26.29;57.56;96257.88;3566586;40;21576;-62
2021/06/24 05:23:32;;;;;;;23.15;20.40;;;;;;;26.03;57.66;96253.75;3574840;40;20059;-62
2021/06/24 05:25:59;;;;;;;24.60;20.83;;;;;;;25.90;58.56;96249.56;3567046;40;20067;-63
2021/06/24 05:28:27;;;;;;;33.85;24.35;;;;;;;25.50;59.62;96242.34;3553662;40;20052;-63
2021/06/24 05:30:55;;;;;;;32.97;23.00;;;;;;;25.35;60.53;96241.16;3575846;40;20063;-62
2021/06/24 05:33:22;;;;;;;40.42;22.70;;;;;;;25.32;61.11;96242.63;3566632;40;20051;-62
2021/06/24 05:35:50;;;;;;;35.67;23.83;;;;;;;25.26;61.49;96238.59;3577138;40;20049;-62
2021/06/24 05:38:18;;;;;;;33.88;25.75;;;;;;;25.15;61.77;96239.09;3568804;40;20056;-62
2021/06/24 05:40:48;;;;;;;31.90;25.10;;;;;;;25.09;62.15;96234.28;3569885;40;20151;-62
2021/06/24 05:43:17;;;;;;;28.60;23.42;;;;;;;25.08;62.58;96232.72;3571687;40;20053;-62
2021/06/24 05:45:45;;;;;;;30.40;23.52;;;;;;;25.10;62.57;96236.63;3571562;40;20287;-62
2021/06/24 05:48:13;;;;;;;28.13;23.25;;;;;;;25.17;62.62;96236.03;3569728;40;20045;-62
2021/06/24 05:50:41;;;;;;;32.22;23.85;;;;;;;25.17;62.67;96230.66;3565632;40;20061;-62
2021/06/24 05:53:09;;;;;;;31.13;25.98;;;;;;;25.21;62.90;96230.75;3565945;40;20447;-62
2021/06/24 05:55:52;;;;;;;30.60;26.02;;;;;;;25.29;63.01;96227.13;3566662;40;20053;-62
2021/06/24 05:58:31;;;;;;;29.75;24.13;;;;;;;25.42;62.41;96228.66;3567613;40;20044;-62
2021/06/24 06:00:59;;;;;;;28.83;23.55;;;;;;;25.55;62.15;96228.59;3569720;40;20057;-62
2021/06/24 06:03:28;;;;;;;26.73;22.50;;;;;;;25.67;62.03;96228.53;3570764;40;20055;-62
2021/06/24 06:05:55;;;;;;;26.35;23.48;;;;;;;25.74;61.90;96231.44;3565459;40;20067;-62
2021/06/24 06:08:23;;;;;;;29.05;24.33;;;;;;;25.85;61.17;96230.91;3567924;40;20394;-62
2021/06/24 06:10:51;;;;;;;26.88;22.17;;;;;;;25.92;61.01;96231.06;3565445;40;20602;-63
2021/06/24 06:13:18;;;;;;;26.10;22.15;;;;;;;26.06;60.89;96223.31;3561465;40;20049;-62
2021/06/24 06:15:48;;;;;;;27.77;22.80;;;;;;;26.21;60.54;96204.78;3569665;40;21018;-62
2021/06/24 06:18:25;;;;;;;30.70;23.25;;;;;;;26.36;60.47;96217.50;3571792;40;20053;-62
2021/06/24 06:20:55;;;;;;;27.65;22.98;;;;;;;26.47;60.29;96208.84;3569950;40;20088;-62
2021/06/24 06:23:26;;;;;;;31.30;25.98;;;;;;;26.63;60.38;96204.19;3567889;40;20045;-62
2021/06/24 06:25:54;;;;;;;31.17;24.85;;;;;;;26.69;59.84;96204.69;3567617;40;20073;-62
2021/06/24 06:28:22;;;;;;;32.90;26.35;;;;;;;26.63;60.18;96201.47;3573952;40;20457;-62
2021/06/24 06:30:52;;;;;;;33.78;25.25;;;;;;;26.63;59.96;96196.06;3558917;40;20420;-62
2021/06/24 06:33:21;;;;;;;29.77;24.02;;;;;;;26.71;60.54;96199.69;3565970;40;20527;-62
2021/06/24 06:35:50;;;;;;;32.67;24.45;;;;;;;26.89;59.88;96199.31;3568067;40;20302;-62
2021/06/24 06:38:20;;;;;;;27.15;23.52;;;;;;;26.94;59.84;96188.97;3567157;40;20048;-62
2021/06/24 06:40:50;;;;;;;26.17;23.58;;;;;;;26.93;58.69;96194.75;3569678;40;20604;-63
2021/06/24 06:43:19;;;;;;;31.30;22.88;;;;;;;27.00;60.11;96195.69;3565359;40;20057;-62
2021/06/24 06:45:48;;;;;;;24.95;21.25;;;;;;;27.18;59.56;96192.53;3568327;40;20082;-62
2021/06/24 06:48:16;;;;;;;25.20;20.88;;;;;;;27.32;59.17;96184.69;3569425;40;20048;-61
2021/06/24 06:50:44;;;;;;;25.30;22.52;;;;;;;27.45;58.10;96185.31;3571080;40;20045;-63
2021/06/24 06:53:12;;;;;;;29.42;21.58;;;;;;;27.51;58.40;96185.81;3571032;40;20086;-62
2021/06/24 06:55:40;;;;;;;27.40;21.58;;;;;;;27.61;57.64;96185.25;3571809;40;20065;-62
2021/06/24 06:58:08;;;;;;;31.27;21.25;;;;;;;27.70;57.07;96184.22;3572617;40;20071;-62
2021/06/24 07:00:36;;;;;;;26.63;21.80;;;;;;;27.76;56.68;96180.03;3581602;40;20044;-64
2021/06/24 07:03:04;;;;;;;30.13;21.42;;;;;;;27.83;57.11;96180.19;3583949;40;20070;-64
2021/06/24 07:05:32;;;;;;;34.25;21.08;;;;;;;27.91;56.85;96181.84;3583826;40;20564;-63
2021/06/24 07:08:00;;;;;;;28.88;19.98;;;;;;;27.95;55.91;96171.06;3582933;40;20056;-64
2021/06/24 07:10:27;;;;;;;25.05;19.75;;;;;;;27.93;56.61;96182.28;3573396;40;20056;-64
2021/06/24 07:12:55;;;;;;;32.45;18.63;;;;;;;27.93;55.99;96176.84;3574877;40;20062;-65
2021/06/24 07:15:23;;;;;;;25.48;18.60;;;;;;;27.98;55.11;96173.03;3583664;40;20040;-64
2021/06/24 07:17:52;;;;;;;26.48;16.27;;;;;;;27.97;53.79;96168.00;3581337;40;20560;-64
2021/06/24 07:20:20;;;;;;;23.50;17.98;;;;;;;28.13;55.08;96165.16;3581872;40;20070;-61
2021/06/24 07:22:48;;;;;;;28.10;19.63;;;;;;;28.34;54.83;96164.69;3583582;40;20048;-64
2021/06/24 07:25:18;;;;;;;24.15;16.25;;;;;;;28.49;53.81;96161.03;3565393;40;20064;-64
2021/06/24 07:27:46;;;;;;;21.73;15.35;;;;;;;28.57;52.24;96169.28;3574121;40;20436;-64
2021/06/24 07:30:15;;;;;;;20.15;15.75;;;;;;;28.62;53.06;96161.59;3581862;40;20054;-63
2021/06/24 07:32:42;;;;;;;23.58;12.98;;;;;;;28.75;51.05;96167.59;3582073;40;20055;-65
2021/06/24 07:35:11;;;;;;;23.40;12.52;;;;;;;28.86;49.94;96159.59;3581693;40;20044;-62
2021/06/24 07:37:38;;;;;;;17.17;11.32;;;;;;;28.92;49.07;96165.47;3577409;40;20048;-64
2021/06/24 07:40:07;;;;;;;22.92;11.93;;;;;;;29.07;49.09;96145.47;3572930;40;20589;-64
2021/06/24 07:42:35;;;;;;;15.10;10.15;;;;;;;29.26;47.86;96157.28;3572920;40;20837;-64
2021/06/24 07:45:03;;;;;;;16.42;10.10;;;;;;;29.40;47.68;96162.91;3572647;40;20317;-64
2021/06/24 07:47:31;;;;;;;18.73;10.50;;;;;;;29.54;46.88;96156.06;3564805;40;20540;-64
2021/06/24 07:49:59;;;;;;;20.17;9.98;;;;;;;29.71;46.54;96154.66;3573365;40;20043;-64
2021/06/24 07:52:26;;;;;;;20.83;11.20;;;;;;;29.84;46.38;96164.06;3582902;40;20056;-64
2021/06/24 07:54:54;;;;;;;21.33;10.50;;;;;;;29.95;45.31;96166.13;3572952;40;20052;-63
2021/06/24 07:57:22;;;;;;;14.95;9.05;;;;;;;30.05;44.39;96158.06;3580285;40;20053;-62
2021/06/24 07:59:50;;;;;;;22.42;9.75;;;;;;;30.17;44.98;96148.81;3580114;40;20051;-62
2021/06/24 08:02:17;;;;;;;13.10;9.07;;;;;;;30.27;43.82;96141.88;3579887;40;20070;-62
2021/06/24 08:04:45;;;;;;;13.90;7.75;;;;;;;30.42;43.07;96145.44;3564145;40;20063;-62
2021/06/24 08:07:13;;;;;;;18.10;7.03;;;;;;;30.57;39.82;96151.78;3560224;40;20951;-62
2021/06/24 08:09:41;;;;;;;14.27;6.78;;;;;;;30.70;40.28;96141.34;3580634;40;20048;-62
2021/06/24 08:12:09;;;;;;;11.98;6.22;;;;;;;30.90;38.86;96146.47;3570195;40;20313;-62
2021/06/24 08:14:37;;;;;;;13.63;5.63;;;;;;;31.02;38.58;96145.34;3577488;40;20066;-62
2021/06/24 08:17:04;;;;;;;12.85;6.65;;;;;;;31.17;38.51;96146.97;3579257;40;20047;-62
2021/06/24 08:19:32;;;;;;;14.95;6.40;;;;;;;31.26;37.63;96141.94;3580202;40;20413;-62
2021/06/24 08:22:00;;;;;;;10.50;5.97;;;;;;;31.31;37.40;96134.56;3568481;40;20336;-62
2021/06/24 08:24:29;;;;;;;17.80;5.85;;;;;;;31.39;36.90;96138.84;3579364;40;20044;-62
2021/06/24 08:26:57;;;;;;;10.48;5.90;;;;;;;31.44;36.57;96130.28;3569292;40;20040;-62
2021/06/24 08:29:24;;;;;;;13.10;5.97;;;;;;;31.51;36.02;96138.47;3576196;40;20044;-62
2021/06/24 08:31:52;;;;;;;14.18;6.28;;;;;;;31.62;35.78;96132.25;3579698;40;20063;-62
2021/06/24 08:34:19;;;;;;;12.43;5.18;;;;;;;31.65;35.92;96132.22;3571766;40;20102;-62
2021/06/24 08:36:47;;;;;;;12.30;5.53;;;;;;;31.67;34.04;96134.59;3577180;40;20062;-63
2021/06/24 08:39:15;;;;;;;9.95;5.03;;;;;;;31.70;35.01;96131.88;3586802;40;20086;-63
2021/06/24 08:41:48;;;;;;;14.48;5.35;;;;;;;31.76;34.08;96126.81;3564105;40;20044;-63
2021/06/24 08:44:17;;;;;;;10.95;5.38;;;;;;;31.83;34.78;96132.25;3579150;40;20056;-63
2021/06/24 08:46:45;;;;;;;9.95;5.00;;;;;;;31.90;35.19;96126.81;3576901;40;20060;-61
2021/06/24 08:49:14;;;;;;;16.42;5.93;;;;;;;32.03;34.85;96129.91;3566637;40;20054;-62
2021/06/24 08:51:42;;;;;;;12.63;5.03;;;;;;;32.08;33.29;96131.47;3563055;40;20051;-62
2021/06/24 08:54:11;;;;;;;8.52;5.57;;;;;;;32.03;34.77;96135.38;3562121;40;20059;-62
2021/06/24 08:56:40;;;;;;;9.93;5.32;;;;;;;32.09;34.95;96130.28;3572202;40;20059;-67
2021/06/24 08:59:08;;;;;;;15.82;5.88;;;;;;;32.09;33.51;96127.56;3569782;40;20049;-62
2021/06/24 09:01:54;;;;;;;19.63;5.85;;;;;;;32.10;33.94;96110.03;3577985;40;20070;-63
2021/06/24 09:04:27;;;;;;;13.00;5.45;;;;;;;32.18;33.51;96127.97;3579429;40;20256;-63
2021/06/24 09:07:22;;;;;;;13.40;5.47;;;;;;;32.27;34.29;96129.53;3573543;40;20029;-63
2021/06/24 09:09:50;;;;;;;12.30;5.60;;;;;;;32.35;34.27;96136.50;3582427;40;20355;-63
2021/06/24 09:12:19;;;;;;;13.35;5.82;;;;;;;32.35;33.11;96131.84;3571249;40;20052;-64
2021/06/24 09:14:58;;;;;;;16.75;5.20;;;;;;;32.36;33.01;96132.59;3581716;40;20045;-64
2021/06/24 09:17:38;;;;;;;11.70;5.50;;;;;;;32.38;32.77;96122.09;3574381;40;20063;-63
2021/06/24 09:20:27;;;;;;;12.30;6.60;;;;;;;32.42;33.35;96127.53;3583211;40;20052;-64
2021/06/24 09:23:16;;;;;;;12.25;5.00;;;;;;;32.49;33.73;96124.78;3581261;40;20478;-63
2021/06/24 09:25:47;;;;;;;13.20;5.43;;;;;;;32.56;33.24;96116.56;3574506;40;20041;-63
2021/06/24 09:28:15;;;;;;;8.90;5.35;;;;;;;32.62;33.73;96119.66;3581250;40;20041;-63
2021/06/24 09:30:44;;;;;;;10.27;5.95;;;;;;;32.63;34.35;96121.22;3583393;40;20064;-64
2021/06/24 09:33:14;;;;;;;11.68;5.68;;;;;;;32.70;33.86;96126.63;3582025;40;20390;-63
2021/06/24 09:35:56;;;;;;;11.98;5.95;;;;;;;32.70;33.83;96131.34;3564520;40;20557;-62
2021/06/24 09:38:24;;;;;;;15.18;6.15;;;;;;;32.74;33.74;96129.38;3572876;40;20327;-61
2021/06/24 09:40:54;;;;;;;16.23;6.28;;;;;;;32.78;33.15;96122.72;3582983;40;20063;-64
2021/06/24 09:43:28;;;;;;;13.15;6.05;;;;;;;32.80;32.98;96122.34;3574790;40;20052;-63
2021/06/24 09:46:16;;;;;;;16.42;5.68;;;;;;;32.89;33.24;96136.34;3581702;40;20090;-63
2021/06/24 09:48:59;;;;;;;14.70;6.45;;;;;;;32.87;33.29;96129.72;3581163;40;20048;-62
2021/06/24 09:51:34;;;;;;;11.30;6.68;;;;;;;32.86;33.06;96122.72;3572429;40;20044;-64
2021/06/24 09:54:10;;;;;;;12.02;7.03;;;;;;;32.91;33.08;96131.25;3568163;40;20058;-63
2021/06/24 09:56:48;;;;;;;14.10;5.78;;;;;;;32.89;33.00;96121.91;3578959;40;20062;-64
2021/06/24 09:59:18;;;;;;;14.57;6.28;;;;;;;32.96;33.17;96116.41;3569089;40;20044;-63
2021/06/24 10:01:47;;;;;;;15.93;5.70;;;;;;;33.00;32.76;96116.38;3568762;40;20398;-64
2021/06/24 10:04:28;;;;;;;13.88;5.20;;;;;;;33.07;32.32;96117.13;3578461;40;20053;-63
2021/06/24 10:06:59;;;;;;;11.48;6.22;;;;;;;33.11;32.80;96123.34;3570162;40;20048;-63
2021/06/24 10:09:28;;;;;;;21.83;5.47;;;;;;;33.19;32.79;96117.84;3566169;40;20090;-64
2021/06/24 10:11:58;;;;;;;13.18;5.50;;;;;;;33.30;32.33;96118.53;3578638;40;20054;-64
2021/06/24 10:14:27;;;;;;;13.20;6.32;;;;;;;33.31;32.71;96116.59;3580192;40;20040;-63
2021/06/24 10:17:01;;;;;;;11.68;5.03;;;;;;;33.29;32.10;96117.00;3581800;40;20052;-63
2021/06/24 10:19:31;;;;;;;11.60;5.22;;;;;;;33.31;32.02;96114.63;3581046;40;20063;-63
2021/06/24 10:22:02;;;;;;;12.07;5.55;;;;;;;33.36;32.10;96110.72;3580025;40;20048;-63
2021/06/24 10:24:46;;;;;;;16.02;7.57;;;;;;;33.47;32.88;96110.66;3580457;40;20371;-63
2021/06/24 10:27:15;;;;;;;13.10;5.65;;;;;;;33.55;31.82;96112.94;3573479;40;20059;-62
2021/06/24 10:29:46;;;;;;;10.73;6.43;;;;;;;33.63;32.60;96115.59;3582725;40;20048;-63
2021/06/24 10:32:24;;;;;;;17.33;5.97;;;;;;;33.63;31.86;96113.66;3569799;40;20055;-63
2021/06/24 10:34:53;;;;;;;16.73;6.68;;;;;;;33.56;32.23;96109.03;3579292;40;20044;-63
2021/06/24 10:37:23;;;;;;;13.95;5.45;;;;;;;33.54;32.28;96110.63;3571390;40;20807;-63
2021/06/24 10:39:54;;;;;;;16.30;6.90;;;;;;;33.51;32.73;96105.94;3586080;39;20066;-63
2021/06/24 10:42:23;;;;;;;12.10;6.95;;;;;;;33.60;32.89;96098.06;3570083;40;20059;-63
2021/06/24 10:44:57;;;;;;;13.95;6.15;;;;;;;33.67;32.75;96108.16;3578297;40;20060;-63
2021/06/24 10:47:34;;;;;;;11.15;6.22;;;;;;;33.69;32.38;96103.84;3581494;40;20349;-63
2021/06/24 10:50:32;;;;;;;13.20;5.93;;;;;;;33.71;31.73;96103.44;3586564;39;20056;-63
2021/06/24 10:53:02;;;;;;;11.88;5.88;;;;;;;33.75;31.99;96103.41;3579178;40;20044;-63
2021/06/24 10:55:46;;;;;;;18.08;6.60;;;;;;;33.76;31.53;96097.53;3567002;40;20047;-63
2021/06/24 10:58:20;;;;;;;20.07;5.30;;;;;;;33.76;31.83;96103.00;3568871;40;20057;-64
2021/06/24 11:00:50;;;;;;;14.57;6.75;;;;;;;33.79;30.53;96098.66;3566936;40;20053;-62
2021/06/24 11:03:30;;;;;;;16.60;5.95;;;;;;;33.79;31.14;96093.97;3568286;40;20041;-63
2021/06/24 11:06:15;;;;;;;15.80;6.40;;;;;;;33.80;30.98;96092.81;3576739;40;20049;-63
2021/06/24 11:08:43;;;;;;;;;;;;;;;33.86;30.56;96082.19;3567619;40;20049;-63
2021/06/24 11:11:13;;;;;;;14.73;7.00;;;;;;;33.86;31.56;96088.44;3567750;40;19999;-63
2021/06/24 11:13:41;;;;;;;11.57;5.38;;;;;;;33.89;31.66;96084.16;3567239;40;20059;-63
2021/06/24 11:16:09;;;;;;;15.40;6.40;;;;;;;33.96;31.80;96088.78;3567669;40;20389;-63
2021/06/24 11:18:37;;;;;;;15.13;5.97;;;;;;;34.05;31.74;96091.81;3569614;40;20049;-63
2021/06/24 11:21:10;;;;;;;14.35;6.95;;;;;;;34.04;30.35;96077.34;3557810;40;20061;-63
2021/06/24 11:23:41;;;;;;;19.95;6.45;;;;;;;34.08;30.45;96074.59;3568463;40;20448;-63
2021/06/24 11:26:12;;;;;;;18.30;7.55;;;;;;;34.10;31.09;96074.16;3568331;40;20059;-63
2021/06/24 11:28:49;;;;;;;25.90;8.48;;;;;;;34.09;31.56;96067.13;3567921;40;20045;-63
2021/06/24 11:31:20;;;;;;;13.35;6.88;;;;;;;34.09;31.93;96069.88;3564772;40;20063;-63
2021/06/24 11:34:17;;;;;;;11.25;5.50;;;;;;;34.11;30.98;96071.00;3567854;40;20317;-63
2021/06/24 11:37:00;;;;;;;12.50;5.70;;;;;;;34.12;30.44;96069.06;3563612;40;20059;-62
2021/06/24 11:39:33;;;;;;;17.77;6.47;;;;;;;34.08;30.55;96071.84;3571089;40;20251;-63